Job, Kentucky
Current Conditions -  °F | °C
As of 9:15 AM on Thursday 27 Nov 2014 (Local Time) from KSJS Reporting Station
Overcast Overcast  
Wind Chill: 26°   Ceiling: 700
Heat Index: 32°   Visibility: 7mi
Dew Point: 31°   Wind: 7mph
Humidity: 96%   Direction: 290°WNW
Pressure: 30.17"   Gusts: NA
Location:  37.8702°N, 82.5184°W
Report Text: KSJS 271415Z AUTO 29006KT 7SM SCT003 OVC007 00/M01 A3017 RMK AO2 T00001006
Loading
Personal Weather Stations






























Interactive Weather Map New forecast layout! Learn more

10-Day Weather Forecast

Advertisements
Track Severe Weather on mobile